Time;durP1;ratioP1;P1;durP2;ratioP2;P2;SDS_P1;SDS_P2;PMS_P1;PMS_P2;Temp;Humidity;BMP_temperature;BMP_pressure;BME280_temperature;BME280_humidity;BME280_pressure;Samples;Min_cycle;Max_cycle;Signal;HPM_P1;HPM_P2
2023/07/12 00:00:53;;;;;;;;;3.00;3.00;;;;;25.95;49.35;100645.28;5054291;28;45508;-59
2023/07/12 00:03:19;;;;;;;;;4.33;3.67;;;;;26.00;48.84;100653.34;5055789;28;45509;-59
2023/07/12 00:05:46;;;;;;;;;2.33;2.33;;;;;26.01;49.13;100660.63;5057253;28;45428;-60
2023/07/12 00:08:20;;;;;;;;;2.67;2.67;;;;;26.00;48.72;100659.72;5056351;28;45456;-59
2023/07/12 00:10:47;;;;;;;;;3.67;2.00;;;;;26.00;49.06;100662.44;5056290;28;45347;-59
2023/07/12 00:13:13;;;;;;;;;5.00;3.67;;;;;26.00;49.08;100658.81;5054865;28;45369;-59
2023/07/12 00:15:39;;;;;;;;;5.00;2.67;;;;;25.87;49.23;100641.94;5056339;28;45375;-59
2023/07/12 00:18:15;;;;;;;;;3.00;3.00;;;;;25.95;48.91;100658.97;5055415;28;45419;-60
2023/07/12 00:20:41;;;;;;;;;3.33;3.00;;;;;25.94;48.99;100660.81;5055516;28;45488;-60
2023/07/12 00:23:11;;;;;;;;;3.00;2.33;;;;;25.94;49.13;100660.81;5055184;28;45778;-59
2023/07/12 00:25:37;;;;;;;;;2.33;2.33;;;;;25.87;49.27;100652.91;5055184;28;47435;-60
2023/07/12 00:28:22;;;;;;;;;3.00;3.00;;;;;25.90;49.47;100671.94;5053588;28;45431;-63
2023/07/12 00:30:48;;;;;;;;;4.00;3.00;;;;;25.66;49.20;100635.47;5054404;28;45327;-58
2023/07/12 00:33:14;;;;;;;;;2.00;2.00;;;;;25.94;49.19;100674.50;5053945;28;45548;-60
2023/07/12 00:35:41;;;;;;;;;3.00;3.00;;;;;25.92;49.01;100662.72;5055098;28;46551;-61
2023/07/12 00:38:27;;;;;;;;;3.67;2.00;;;;;25.95;48.95;100675.38;5054864;28;45992;-62
2023/07/12 00:40:55;;;;;;;;;2.00;2.00;;;;;25.96;48.96;100666.28;5055409;28;45541;-60
2023/07/12 00:43:37;;;;;;;;;1.00;1.00;;;;;25.97;49.10;100664.41;5054580;28;45565;-59
2023/07/12 00:46:12;;;;;;;;;4.00;3.67;;;;;26.00;48.94;100661.56;5054250;28;46999;-59
2023/07/12 00:48:37;;;;;;;;;2.67;1.33;;;;;25.90;48.96;100652.78;5055424;28;45487;-59
2023/07/12 00:51:21;;;;;;;;;2.00;1.00;;;;;25.91;49.43;100671.88;5055370;28;45543;-59
2023/07/12 00:53:46;;;;;;;;;3.00;1.00;;;;;25.73;49.56;100651.59;5054840;28;45565;-59
2023/07/12 00:56:12;;;;;;;;;3.67;2.00;;;;;25.78;49.79;100676.03;5055702;28;50425;-61
2023/07/12 00:58:43;;;;;;;;;1.33;1.33;;;;;25.68;49.65;100680.09;5053116;28;45512;-59
2023/07/12 01:01:09;;;;;;;;;2.33;1.00;;;;;25.60;49.93;100676.75;5050866;28;45504;-60
2023/07/12 01:03:38;;;;;;;;;2.00;2.00;;;;;25.56;50.19;100681.44;5058111;28;45510;-60
2023/07/12 01:06:06;;;;;;;;;3.33;2.00;;;;;25.36;50.40;100660.31;5057771;28;46942;-59
2023/07/12 01:08:33;;;;;;;;;1.33;1.00;;;;;25.28;50.57;100662.41;5055452;28;45534;-58
2023/07/12 01:11:02;;;;;;;;;2.00;2.00;;;;;24.73;50.77;100589.59;5051318;28;45290;-60
2023/07/12 01:13:29;;;;;;;;;5.33;3.67;;;;;25.22;51.36;100689.94;5055583;28;45405;-57
2023/07/12 01:15:58;;;;;;;;;8.00;5.00;;;;;25.12;51.21;100687.53;5050602;28;47304;-63
2023/07/12 01:18:23;;;;;;;;;12.00;10.67;;;;;25.02;51.62;100683.31;5055141;28;45510;-60
2023/07/12 01:21:03;;;;;;;;;12.67;10.00;;;;;24.97;51.88;100683.47;5057039;28;45409;-59
2023/07/12 01:23:29;;;;;;;;;6.00;4.67;;;;;24.86;52.69;100701.19;5055601;28;45397;-59
2023/07/12 01:26:16;;;;;;;;;4.00;3.00;;;;;24.64;52.79;100688.25;5056957;28;46554;-59
2023/07/12 01:28:43;;;;;;;;;3.67;2.67;;;;;24.43;53.09;100674.31;5049866;28;45502;-59
2023/07/12 01:31:08;;;;;;;;;4.33;2.00;;;;;24.40;53.36;100700.81;5058387;28;45415;-59
2023/07/12 01:33:34;;;;;;;;;3.00;3.00;;;;;24.33;53.50;100697.38;5057317;28;45308;-59
2023/07/12 01:35:59;;;;;;;;;2.00;2.00;;;;;24.29;52.46;100690.25;5056678;28;45394;-58
2023/07/12 01:38:24;;;;;;;;;2.00;1.33;;;;;24.31;52.06;100690.22;5055629;28;45321;-58
2023/07/12 01:40:50;;;;;;;;;1.00;1.00;;;;;24.33;51.79;100693.78;5056934;28;46147;-61
2023/07/12 01:43:15;;;;;;;;;1.67;1.67;;;;;24.36;51.50;100700.03;5057438;28;45448;-57
2023/07/12 01:45:41;;;;;;;;;1.00;0.67;;;;;24.38;51.62;100698.13;5056416;28;45534;-58
2023/07/12 01:48:06;;;;;;;;;0.00;0.00;;;;;24.42;51.55;100709.88;5056725;28;45452;-57
2023/07/12 01:50:31;;;;;;;;;1.00;1.00;;;;;24.38;51.20;100692.69;5055452;28;57283;-58
2023/07/12 01:52:57;;;;;;;;;2.00;2.00;;;;;24.54;51.00;100712.22;5056799;28;45532;-58
2023/07/12 01:55:22;;;;;;;;;1.00;1.00;;;;;24.56;51.01;100715.81;5055324;28;47603;-58
2023/07/12 01:57:48;;;;;;;;;1.00;1.00;;;;;24.57;51.01;100703.06;5056943;28;46224;-59
2023/07/12 02:00:14;;;;;;;;;0.67;0.67;;;;;24.56;50.56;100702.16;5056254;28;47232;-58
2023/07/12 02:02:39;;;;;;;;;0.00;0.00;;;;;24.57;50.38;100714.00;5056904;28;45420;-59
2023/07/12 02:05:06;;;;;;;;;1.00;1.00;;;;;24.57;50.62;100714.88;5056619;28;45502;-59
2023/07/12 02:07:32;;;;;;;;;2.00;1.00;;;;;24.63;50.53;100719.22;5053413;28;45446;-61
2023/07/12 02:10:16;;;;;;;;;0.00;0.00;;;;;24.64;50.30;100716.47;5056248;28;45587;-57
2023/07/12 02:12:43;;;;;;;;;1.00;1.00;;;;;24.66;49.95;100724.59;5056776;28;45411;-59
2023/07/12 02:15:10;;;;;;;;;2.00;1.00;;;;;24.59;49.95;100714.84;5055774;28;47478;-58
2023/07/12 02:17:35;;;;;;;;;0.00;0.00;;;;;24.54;50.32;100728.59;5050180;28;45461;-57
2023/07/12 02:20:00;;;;;;;;;0.00;0.00;;;;;24.44;50.48;100735.31;5056477;28;45831;-58
2023/07/12 02:22:29;;;;;;;;;0.33;0.33;;;;;24.41;50.15;100733.53;5056051;28;45355;-57
2023/07/12 02:24:54;;;;;;;;;0.67;0.00;;;;;24.32;50.73;100730.19;5054807;28;48152;-58
2023/07/12 02:27:19;;;;;;;;;0.00;0.00;;;;;24.32;50.66;100743.84;5056313;28;45510;-60
2023/07/12 02:29:45;;;;;;;;;0.00;0.00;;;;;24.29;50.88;100737.56;5050989;28;51958;-58
2023/07/12 02:32:10;;;;;;;;;1.00;1.00;;;;;24.17;50.85;100739.75;5055031;28;45495;-58
2023/07/12 02:34:35;;;;;;;;;0.00;0.00;;;;;24.06;50.91;100745.56;5055900;28;62805;-59
2023/07/12 02:37:01;;;;;;;;;0.00;0.00;;;;;23.98;51.30;100743.03;5056277;28;45475;-58
2023/07/12 02:39:26;;;;;;;;;1.00;1.00;;;;;23.99;51.10;100741.19;5055603;28;45400;-57
2023/07/12 02:41:51;;;;;;;;;2.00;0.00;;;;;23.91;51.34;100734.16;5056056;28;45288;-58
2023/07/12 02:44:17;;;;;;;;;0.00;0.00;;;;;23.96;51.13;100750.38;5053899;28;45410;-59
2023/07/12 02:46:42;;;;;;;;;0.00;0.00;;;;;23.92;51.07;100751.41;5056537;28;45533;-58
2023/07/12 02:49:08;;;;;;;;;2.00;0.00;;;;;23.70;51.38;100743.78;5055928;28;45426;-57
2023/07/12 02:51:33;;;;;;;;;0.00;0.00;;;;;23.69;51.58;100768.38;5056699;28;45388;-58
2023/07/12 02:53:58;;;;;;;;;1.00;0.00;;;;;23.58;51.68;100771.44;5053956;28;47347;-58
2023/07/12 02:56:23;;;;;;;;;1.33;1.33;;;;;23.50;52.08;100770.75;5054652;28;49260;-57
2023/07/12 02:58:49;;;;;;;;;0.00;0.00;;;;;23.29;52.92;100773.06;5055558;28;45260;-58
2023/07/12 03:01:14;;;;;;;;;0.00;0.00;;;;;23.20;52.94;100762.44;5054757;28;45569;-59
2023/07/12 03:03:40;;;;;;;;;0.00;0.00;;;;;23.26;52.98;100772.28;5055434;28;45353;-58
2023/07/12 03:06:08;;;;;;;;;0.33;0.33;;;;;23.34;53.05;100764.78;5055541;28;45374;-58
2023/07/12 03:08:34;;;;;;;;;1.00;1.00;;;;;23.30;52.89;100774.88;5053411;28;45460;-58
2023/07/12 03:11:01;;;;;;;;;2.67;0.33;;;;;23.11;52.44;100752.63;5054435;28;45511;-58
2023/07/12 03:13:27;;;;;;;;;0.00;0.00;;;;;23.33;52.77;100763.91;5055030;28;46143;-58
2023/07/12 03:15:52;;;;;;;;;0.33;0.33;;;;;23.28;52.21;100762.22;5054418;28;45468;-58
2023/07/12 03:18:17;;;;;;;;;0.67;0.67;;;;;23.35;52.35;100772.03;5055123;28;45313;-57
2023/07/12 03:20:43;;;;;;;;;0.33;0.00;;;;;23.22;52.74;100760.56;5055201;28;47054;-57
2023/07/12 03:23:08;;;;;;;;;1.00;1.00;;;;;23.28;52.63;100775.84;5054651;28;56699;-58
2023/07/12 03:25:34;;;;;;;;;0.67;0.67;;;;;23.29;52.67;100780.38;5055079;28;45382;-58
2023/07/12 03:27:59;;;;;;;;;0.00;0.00;;;;;23.30;52.03;100791.25;5054034;28;45298;-58
2023/07/12 03:30:24;;;;;;;;;2.00;1.00;;;;;23.25;51.19;100787.75;5048749;28;45635;-58
2023/07/12 03:32:50;;;;;;;;;1.00;1.00;;;;;23.12;50.69;100794.44;5054883;28;46217;-58
2023/07/12 03:35:16;;;;;;;;;0.00;0.00;;;;;22.96;50.89;100786.59;5055043;28;45495;-58
2023/07/12 03:37:41;;;;;;;;;3.00;1.33;;;;;22.91;50.92;100793.97;5055012;28;45195;-58
2023/07/12 03:40:07;;;;;;;;;3.00;1.67;;;;;22.86;50.38;100790.47;5055482;28;45527;-58
2023/07/12 03:42:33;;;;;;;;;1.00;1.00;;;;;22.83;50.36;100785.09;5053484;28;47449;-62
2023/07/12 03:44:59;;;;;;;;;1.00;1.00;;;;;22.77;49.81;100764.34;5052398;28;46082;-57
2023/07/12 03:47:24;;;;;;;;;1.33;1.33;;;;;22.83;49.34;100787.81;5054705;28;45500;-58
2023/07/12 03:49:49;;;;;;;;;1.67;1.00;;;;;22.82;49.20;100792.38;5055269;28;45329;-59
2023/07/12 03:52:15;;;;;;;;;2.00;2.00;;;;;22.79;49.42;100789.72;5054819;28;45479;-58
2023/07/12 03:54:41;;;;;;;;;1.00;1.00;;;;;22.75;49.45;100798.91;5054209;28;55837;-65
2023/07/12 03:57:07;;;;;;;;;4.00;0.00;;;;;22.52;49.60;100780.38;5055052;28;45629;-58
2023/07/12 03:59:32;;;;;;;;;0.00;0.00;;;;;22.51;50.06;100811.25;5054765;28;45525;-58
2023/07/12 04:01:58;;;;;;;;;2.00;2.00;;;;;22.40;50.01;100808.75;5053571;28;45404;-58
2023/07/12 04:04:23;;;;;;;;;1.00;1.00;;;;;22.36;50.12;100801.59;5054510;28;50240;-58
2023/07/12 04:06:48;;;;;;;;;3.33;2.00;;;;;22.35;50.21;100807.06;5052879;28;51659;-57
2023/07/12 04:09:14;;;;;;;;;1.00;1.00;;;;;22.39;49.99;100811.50;5054461;28;48359;-57
2023/07/12 04:11:41;;;;;;;;;1.00;1.00;;;;;22.38;49.72;100798.84;5054378;28;45347;-59
2023/07/12 04:14:07;;;;;;;;;1.00;1.00;;;;;22.41;49.89;100820.56;5054464;28;45399;-59
2023/07/12 04:16:33;;;;;;;;;0.00;0.00;;;;;22.40;49.74;100819.63;5054432;28;45512;-58
2023/07/12 04:18:58;;;;;;;;;0.33;0.33;;;;;22.49;49.78;100817.66;5054273;28;45374;-58
2023/07/12 04:21:24;;;;;;;;;2.67;0.33;;;;;22.56;49.48;100822.94;5054316;28;46250;-58
2023/07/12 04:23:51;;;;;;;;;2.00;0.00;;;;;22.60;49.39;100827.41;5054689;28;45428;-58
2023/07/12 04:26:17;;;;;;;;;2.00;1.33;;;;;22.53;49.47;100817.56;5058424;28;45557;-59
2023/07/12 04:28:48;;;;;;;;;2.33;1.00;;;;;22.56;49.75;100830.22;5055042;28;45491;-58
2023/07/12 04:31:14;;;;;;;;;1.00;1.00;;;;;22.54;49.68;100840.25;5054006;28;46196;-59
2023/07/12 04:33:40;;;;;;;;;2.00;0.33;;;;;22.62;49.46;100846.44;5054532;28;45425;-59
2023/07/12 04:36:07;;;;;;;;;1.00;1.00;;;;;22.66;49.57;100833.63;5053000;28;60723;-59
2023/07/12 04:38:33;;;;;;;;;2.00;0.33;;;;;22.66;48.94;100844.53;5056631;28;45540;-57
2023/07/12 04:40:58;;;;;;;;;2.00;2.00;;;;;22.62;48.85;100838.25;5054882;28;45652;-59
2023/07/12 04:43:24;;;;;;;;;3.33;2.00;;;;;22.63;48.95;100843.63;5055270;28;45459;-60
2023/07/12 04:45:50;;;;;;;;;0.67;0.67;;;;;22.69;48.99;100852.63;5054235;28;45540;-59
2023/07/12 04:48:15;;;;;;;;;1.00;1.00;;;;;22.70;48.90;100844.41;5055101;28;45497;-59
2023/07/12 04:50:41;;;;;;;;;1.00;1.00;;;;;22.67;48.89;100858.13;5054789;28;45389;-59
2023/07/12 04:53:06;;;;;;;;;1.00;1.00;;;;;22.48;49.08;100859.44;5055161;28;45605;-60
2023/07/12 04:55:32;;;;;;;;;1.00;1.00;;;;;22.33;49.19;100866.09;5054414;28;45492;-59
2023/07/12 04:57:58;;;;;;;;;1.33;1.00;;;;;22.30;49.34;100860.72;5054753;28;45544;-59
2023/07/12 05:00:24;;;;;;;;;3.67;1.00;;;;;22.34;49.30;100852.47;5052546;28;47123;-61
2023/07/12 05:02:50;;;;;;;;;1.00;1.00;;;;;22.37;49.63;100865.09;5051216;28;45496;-66
2023/07/12 05:05:16;;;;;;;;;3.67;2.00;;;;;22.38;49.68;100861.44;5052897;28;45432;-58
2023/07/12 05:07:41;;;;;;;;;1.00;1.00;;;;;22.25;49.89;100853.47;5052644;28;45375;-59
2023/07/12 05:10:09;;;;;;;;;2.00;1.33;;;;;22.30;50.03;100858.00;5053440;28;46200;-59
2023/07/12 05:12:36;;;;;;;;;1.67;1.67;;;;;22.39;49.97;100863.22;5054112;28;45476;-58
2023/07/12 05:15:03;;;;;;;;;1.00;1.00;;;;;22.38;49.73;100865.06;5051803;28;45529;-59
2023/07/12 05:17:28;;;;;;;;;1.00;1.00;;;;;22.38;49.20;100884.13;5053968;28;45374;-58
2023/07/12 05:19:54;;;;;;;;;2.00;2.00;;;;;22.44;49.37;100883.13;5052989;28;46206;-59
2023/07/12 05:22:19;;;;;;;;;2.33;2.33;;;;;22.50;48.89;100885.69;5053677;28;45343;-59
2023/07/12 05:24:45;;;;;;;;;15.00;15.00;;;;;22.56;48.75;100898.28;5053893;28;45586;-58
2023/07/12 05:27:10;;;;;;;;;1.00;1.00;;;;;22.61;48.14;100901.81;5054166;28;48203;-60
2023/07/12 05:29:37;;;;;;;;;1.00;1.00;;;;;22.44;47.97;100894.00;5053964;28;48185;-58
2023/07/12 05:32:02;;;;;;;;;3.00;1.33;;;;;22.29;48.13;100913.34;5054406;28;45528;-59
2023/07/12 05:34:27;;;;;;;;;2.00;1.00;;;;;22.05;48.70;100918.31;5054845;28;45545;-59
2023/07/12 05:36:53;;;;;;;;;0.67;0.00;;;;;21.91;49.41;100921.28;5054066;28;45520;-60
2023/07/12 05:39:18;;;;;;;;;2.67;2.67;;;;;21.90;49.34;100912.19;5053264;28;46161;-59
2023/07/12 05:41:44;;;;;;;;;3.33;2.00;;;;;21.87;49.84;100911.38;5054447;28;45451;-58
2023/07/12 05:44:09;;;;;;;;;1.67;0.33;;;;;21.83;49.62;100905.09;5056633;28;46402;-59
2023/07/12 05:46:37;;;;;;;;;4.33;2.00;;;;;21.94;49.57;100909.44;5057342;28;45546;-60
2023/07/12 05:49:03;;;;;;;;;1.00;1.00;;;;;21.96;49.57;100916.66;5054017;28;46176;-58
2023/07/12 05:51:28;;;;;;;;;2.33;2.33;;;;;22.00;49.25;100925.66;5053834;28;45427;-60
2023/07/12 05:53:53;;;;;;;;;0.00;0.00;;;;;21.94;49.55;100932.09;5055774;28;45449;-60
2023/07/12 05:56:19;;;;;;;;;4.00;2.67;;;;;21.87;49.59;100930.41;5055678;28;45450;-59
2023/07/12 05:58:44;;;;;;;;;7.00;1.00;;;;;21.85;50.04;100935.88;5055104;28;46442;-59
2023/07/12 06:01:09;;;;;;;;;1.67;1.00;;;;;21.82;50.00;100935.03;5055924;28;45563;-62
2023/07/12 06:03:35;;;;;;;;;2.33;1.33;;;;;21.69;49.91;100928.91;5056043;28;45701;-59
2023/07/12 06:06:05;;;;;;;;;6.33;5.00;;;;;21.52;50.51;100921.91;5054991;28;45460;-60
2023/07/12 06:08:30;;;;;;;;;1.00;1.00;;;;;21.52;50.62;100938.22;5055908;28;45598;-60
2023/07/12 06:10:55;;;;;;;;;3.00;3.00;;;;;21.37;50.81;100904.94;5056139;28;45394;-60
2023/07/12 06:13:21;;;;;;;;;3.00;2.00;;;;;21.47;50.45;100921.09;5055756;28;45309;-60
2023/07/12 06:15:46;;;;;;;;;2.00;2.00;;;;;21.53;50.32;100933.69;5056355;28;45258;-59
2023/07/12 06:18:11;;;;;;;;;3.00;2.00;;;;;21.57;50.24;100934.56;5056316;28;46068;-59
2023/07/12 06:20:37;;;;;;;;;4.00;2.00;;;;;21.59;50.48;100939.03;5056324;28;45481;-60
2023/07/12 06:23:02;;;;;;;;;3.00;1.33;;;;;21.59;49.79;100930.88;5056642;28;45687;-60
2023/07/12 06:25:28;;;;;;;;;3.00;1.00;;;;;21.63;50.03;100946.22;5056119;28;45419;-62
2023/07/12 06:27:54;;;;;;;;;0.33;0.33;;;;;21.53;49.80;100933.69;5056159;28;46004;-59
2023/07/12 06:30:19;;;;;;;;;2.00;0.67;;;;;21.48;49.69;100935.56;5055883;28;45336;-59
2023/07/12 06:32:45;;;;;;;;;1.00;1.00;;;;;21.43;50.09;100940.16;5056314;28;46264;-59
2023/07/12 06:35:11;;;;;;;;;3.33;2.33;;;;;21.37;49.78;100946.59;5056815;28;45785;-60
2023/07/12 06:37:36;;;;;;;;;8.33;5.33;;;;;21.30;49.91;100936.72;5055787;28;45416;-62
2023/07/12 06:40:02;;;;;;;;;2.67;2.00;;;;;21.24;49.80;100917.81;5055864;28;45407;-59
2023/07/12 06:42:30;;;;;;;;;1.00;1.00;;;;;21.56;49.60;100962.66;5053995;28;45511;-60
2023/07/12 06:44:55;;;;;;;;;3.00;1.00;;;;;21.64;49.71;100964.31;5055888;28;45388;-60
2023/07/12 06:47:21;;;;;;;;;2.00;2.00;;;;;21.71;49.70;100959.69;5055720;28;45322;-58
2023/07/12 06:49:47;;;;;;;;;2.00;2.00;;;;;21.84;49.35;100965.81;5055995;28;45343;-59
2023/07/12 06:52:12;;;;;;;;;2.33;2.33;;;;;21.81;48.85;100964.06;5054514;28;45341;-60
2023/07/12 06:54:38;;;;;;;;;3.00;3.00;;;;;21.89;48.81;100974.78;5037240;28;46095;-60
2023/07/12 06:57:04;;;;;;;;;6.00;2.33;;;;;21.89;48.80;100974.78;5053985;28;46184;-60
2023/07/12 06:59:29;;;;;;;;;3.00;2.67;;;;;21.77;48.68;100958.69;5054455;28;45301;-60
2023/07/12 07:01:55;;;;;;;;;3.00;3.00;;;;;21.72;48.89;100961.47;5055286;28;45437;-60
2023/07/12 07:04:20;;;;;;;;;2.33;1.00;;;;;21.74;48.37;100986.81;5055583;28;45461;-61
2023/07/12 07:06:46;;;;;;;;;4.67;3.00;;;;;21.71;48.53;100974.19;5054485;28;46156;-60
2023/07/12 07:09:11;;;;;;;;;1.33;1.33;;;;;21.63;48.41;100953.47;5055343;28;45450;-64
2023/07/12 07:11:37;;;;;;;;;1.00;1.00;;;;;21.82;48.02;100981.28;5050228;28;45728;-59
2023/07/12 07:14:03;;;;;;;;;2.00;1.00;;;;;21.83;47.96;100991.25;5052372;28;45555;-63
2023/07/12 07:16:29;;;;;;;;;2.33;2.33;;;;;21.94;47.66;100982.88;5054975;28;46281;-61
2023/07/12 07:18:55;;;;;;;;;3.00;3.00;;;;;21.88;47.48;100940.38;5050248;28;45357;-61
2023/07/12 07:21:21;;;;;;;;;1.00;1.00;;;;;22.21;47.02;100976.97;5055419;28;45735;-60
2023/07/12 07:23:46;;;;;;;;;1.00;1.00;;;;;22.30;46.65;100981.38;5055389;28;45492;-60
2023/07/12 07:26:13;;;;;;;;;3.00;2.00;;;;;22.38;46.56;100973.06;5054400;28;52875;-59
2023/07/12 07:28:39;;;;;;;;;2.00;2.00;;;;;22.18;46.25;100936.19;5054817;28;45420;-60
2023/07/12 07:31:05;;;;;;;;;1.00;1.00;;;;;22.43;46.15;100996.53;5054098;28;45533;-63
2023/07/12 07:33:30;;;;;;;;;2.00;2.00;;;;;22.38;46.14;100982.13;5055614;28;45492;-62
2023/07/12 07:35:56;;;;;;;;;2.67;1.00;;;;;22.31;45.84;100990.44;5055552;28;45639;-59
2023/07/12 07:38:28;;;;;;;;;1.00;1.00;;;;;21.97;45.92;100958.34;5054948;28;45492;-61
2023/07/12 07:40:55;;;;;;;;;5.00;2.00;;;;;22.04;46.39;100985.44;5054598;28;45552;-59
2023/07/12 07:43:21;;;;;;;;;3.00;1.67;;;;;22.12;46.32;100993.44;5055036;28;45568;-59
2023/07/12 07:45:47;;;;;;;;;5.67;2.00;;;;;22.22;46.22;100986.94;5053764;28;46226;-60
2023/07/12 07:48:12;;;;;;;;;2.00;2.00;;;;;22.34;46.01;100982.19;5053795;28;46583;-59
2023/07/12 07:50:39;;;;;;;;;3.33;2.00;;;;;22.44;45.87;100968.41;5052603;28;45444;-64
2023/07/12 07:53:04;;;;;;;;;2.67;2.00;;;;;22.59;45.64;100972.66;5047654;28;45766;-59
2023/07/12 07:55:30;;;;;;;;;4.33;2.67;;;;;22.79;45.52;100993.16;5051497;28;45702;-60
2023/07/12 07:57:56;;;;;;;;;1.67;1.67;;;;;22.76;44.58;100988.63;5054137;28;45749;-61
2023/07/12 08:00:21;;;;;;;;;0.00;0.00;;;;;22.77;43.85;101001.34;5054210;28;45389;-61
2023/07/12 08:02:47;;;;;;;;;2.00;2.00;;;;;22.78;44.35;100989.50;5054829;28;45381;-67
2023/07/12 08:05:14;;;;;;;;;1.00;1.00;;;;;22.97;43.54;100990.03;5051466;28;46322;-61
2023/07/12 08:07:46;;;;;;;;;3.00;3.00;;;;;23.16;43.52;100990.59;5054861;28;45525;-61
2023/07/12 08:10:17;;;;;;;;;3.00;1.33;;;;;23.28;43.45;100975.78;5054693;28;45408;-61
2023/07/12 08:12:43;;;;;;;;;5.00;0.00;;;;;23.41;42.69;101002.75;5054654;28;45572;-64
2023/07/12 08:15:09;;;;;;;;;1.00;1.00;;;;;23.34;42.98;101007.44;5053903;28;45527;-61
2023/07/12 08:17:35;;;;;;;;;1.00;1.00;;;;;23.12;42.96;100982.50;5053028;28;45464;-61
2023/07/12 08:20:01;;;;;;;;;2.00;0.67;;;;;23.24;42.65;101014.91;5053053;28;45704;-60
2023/07/12 08:22:27;;;;;;;;;3.33;2.33;;;;;23.19;42.45;101008.69;5048287;28;45472;-60
2023/07/12 08:24:52;;;;;;;;;6.00;1.00;;;;;23.10;42.69;101000.69;5054211;28;47023;-61
2023/07/12 08:27:18;;;;;;;;;2.00;2.00;;;;;23.11;42.66;101003.38;5054779;28;45437;-62
2023/07/12 08:29:43;;;;;;;;;1.00;1.00;;;;;23.10;42.48;100997.97;5057029;28;45562;-63
2023/07/12 08:32:10;;;;;;;;;1.00;1.00;;;;;22.96;42.53;100976.44;5057970;28;45726;-62
2023/07/12 08:34:35;;;;;;;;;0.00;0.00;;;;;23.19;41.76;100993.22;5055643;28;45471;-62
2023/07/12 08:37:01;;;;;;;;;1.00;1.00;;;;;23.19;42.08;101000.50;5055020;28;45458;-62
2023/07/12 08:39:27;;;;;;;;;1.33;1.00;;;;;23.19;41.86;101005.94;5054160;28;45535;-63
2023/07/12 08:41:53;;;;;;;;;1.00;1.00;;;;;23.26;41.96;100991.25;5055624;28;45421;-63
2023/07/12 08:44:18;;;;;;;;;0.67;0.67;;;;;23.49;41.66;100990.72;5053991;28;45385;-61
2023/07/12 08:46:55;;;;;;;;;0.33;0.33;;;;;23.70;40.66;100992.03;5053797;28;45637;-61
2023/07/12 08:49:21;;;;;;;;;3.00;3.00;;;;;23.91;40.60;100990.66;5054514;28;45383;-60
2023/07/12 08:51:48;;;;;;;;;2.00;2.00;;;;;23.84;40.38;100974.47;5053985;28;45439;-62
2023/07/12 08:54:22;;;;;;;;;1.00;1.00;;;;;23.82;40.22;101001.78;5052951;28;45340;-61
2023/07/12 08:56:48;;;;;;;;;0.33;0.00;;;;;23.67;40.80;101005.75;5050950;28;45467;-60
2023/07/12 08:59:15;;;;;;;;;2.00;1.67;;;;;23.80;40.97;101008.19;5052235;28;45351;-61
2023/07/12 09:01:51;;;;;;;;;3.00;3.00;;;;;24.02;40.82;101003.13;5053749;28;45526;-67
2023/07/12 09:04:25;;;;;;;;;1.00;1.00;;;;;24.15;40.18;101011.91;5051059;28;45373;-61
2023/07/12 09:06:55;;;;;;;;;2.00;2.00;;;;;23.86;40.02;100942.59;5053748;28;45467;-61
2023/07/12 09:09:21;;;;;;;;;2.33;1.00;;;;;24.22;39.57;100986.22;5053670;28;45603;-65
2023/07/12 09:11:47;;;;;;;;;2.33;2.33;;;;;24.53;39.63;101012.72;5053879;28;45480;-63
2023/07/12 09:14:24;;;;;;;;;2.00;2.00;;;;;24.72;39.28;101011.31;5055038;28;45598;-60
2023/07/12 09:16:58;;;;;;;;;1.00;1.00;;;;;24.87;39.01;101030.94;5050532;28;46466;-64
2023/07/12 09:19:36;;;;;;;;;1.00;1.00;;;;;24.90;38.93;101033.59;5051697;28;46243;-61
2023/07/12 09:22:13;;;;;;;;;2.33;1.67;;;;;24.87;38.51;101020.91;5052685;28;45499;-64
2023/07/12 09:24:45;;;;;;;;;5.33;5.00;;;;;24.94;38.24;101030.72;5056418;28;47174;-62
2023/07/12 09:27:20;;;;;;;;;1.00;1.00;;;;;24.75;37.23;101013.97;5057830;28;45848;-63
2023/07/12 09:29:46;;;;;;;;;1.00;1.00;;;;;24.70;36.65;101015.00;5055903;28;45425;-65
2023/07/12 09:32:41;;;;;;;;;2.67;1.33;;;;;24.71;36.88;101016.81;5057955;28;45494;-63
2023/07/12 09:35:52;;;;;;;;;2.00;1.67;;;;;24.93;36.85;101019.81;5049979;28;45705;-62
2023/07/12 09:38:24;;;;;;;;;2.67;1.00;;;;;25.15;36.35;101020.97;5048097;28;45479;-60
2023/07/12 09:40:51;;;;;;;;;1.00;1.00;;;;;25.11;36.38;100986.50;5057110;28;45615;-61
2023/07/12 09:43:17;;;;;;;;;3.00;1.00;;;;;25.37;36.44;101026.72;5056444;28;45523;-61
2023/07/12 09:45:52;;;;;;;;;27.00;17.00;;;;;25.45;35.47;101037.44;5052176;28;45964;-63
2023/07/12 09:48:42;;;;;;;;;1.00;1.00;;;;;25.43;35.62;101030.25;5057200;28;45278;-62
2023/07/12 09:51:13;;;;;;;;;10.33;6.33;;;;;25.38;35.53;101027.63;5054112;28;45540;-61
2023/07/12 09:53:45;;;;;;;;;1.00;1.00;;;;;25.33;36.20;101025.03;5056240;28;45426;-61
2023/07/12 09:56:29;;;;;;;;;2.00;1.00;;;;;25.22;36.45;101035.38;5056604;28;46636;-62
2023/07/12 09:59:12;;;;;;;;;1.33;1.00;;;;;25.16;36.64;101033.72;5055034;28;45858;-61
2023/07/12 10:01:54;;;;;;;;;3.67;1.33;;;;;25.15;36.10;101012.78;5056082;28;45506;-61
2023/07/12 10:04:41;;;;;;;;;0.67;0.67;;;;;25.41;35.77;101024.81;5054771;28;45445;-64
2023/07/12 10:07:30;;;;;;;;;4.00;2.33;;;;;25.30;35.19;101032.44;5056966;28;47176;-63
2023/07/12 10:09:56;;;;;;;;;1.00;1.00;;;;;25.15;35.77;101034.66;5031001;28;45489;-62
2023/07/12 10:12:46;;;;;;;;;1.00;1.00;;;;;25.14;35.92;101035.59;5050967;28;45499;-62
2023/07/12 10:15:13;;;;;;;;;0.33;0.33;;;;;25.12;35.44;101033.84;5056517;28;46021;-67
2023/07/12 10:17:42;;;;;;;;;1.00;1.00;;;;;25.10;35.06;101042.09;5055887;28;46060;-62
2023/07/12 10:20:20;;;;;;;;;1.00;1.00;;;;;25.12;32.58;101033.84;5057459;28;45453;-67
2023/07/12 10:22:45;;;;;;;;;0.00;0.00;;;;;25.16;33.23;101035.53;5057617;28;45392;-64
2023/07/12 10:25:19;;;;;;;;;1.33;1.33;;;;;25.08;33.21;101007.53;5050586;28;45396;-61
2023/07/12 10:27:55;;;;;;;;;4.00;2.00;;;;;25.26;33.85;101011.56;5055277;28;46585;-61
2023/07/12 10:30:25;;;;;;;;;1.00;1.00;;;;;25.36;33.87;101024.94;5053961;28;45449;-61
2023/07/12 10:32:58;;;;;;;;;0.00;0.00;;;;;25.42;33.80;101021.13;5055514;28;45450;-61
2023/07/12 10:35:29;;;;;;;;;1.67;1.00;;;;;25.47;33.65;101012.78;5056530;28;45361;-61
2023/07/12 10:38:10;;;;;;;;;2.67;2.67;;;;;25.49;33.77;101003.59;5056159;28;46767;-61
2023/07/12 10:40:40;;;;;;;;;1.33;1.33;;;;;25.48;34.18;101006.38;5056299;28;45491;-60
2023/07/12 10:43:13;;;;;;;;;3.00;1.00;;;;;25.32;34.42;101006.81;5042172;28;45496;-66
2023/07/12 10:45:39;;;;;;;;;2.00;2.00;;;;;25.24;34.95;101007.97;5056228;28;45479;-62
2023/07/12 10:48:07;;;;;;;;;2.00;2.00;;;;;25.23;34.70;101017.13;5053622;28;45517;-62
2023/07/12 10:50:36;;;;;;;;;1.33;1.33;;;;;25.30;34.67;101013.31;5047747;28;45535;-61
2023/07/12 10:53:12;;;;;;;;;2.00;2.00;;;;;25.35;33.45;101005.84;5056065;28;45382;-63
2023/07/12 10:56:03;;;;;;;;;2.00;2.00;;;;;25.47;33.13;100999.09;5056116;28;45304;-62
2023/07/12 10:58:45;;;;;;;;;4.00;2.00;;;;;25.49;33.20;100991.72;5055307;28;47131;-61
2023/07/12 11:01:40;;;;;;;;;3.00;2.00;;;;;25.57;33.17;100997.84;5053632;28;45451;-60
2023/07/12 11:04:33;;;;;;;;;1.00;1.00;;;;;25.66;33.29;101005.78;5055062;28;45407;-62
2023/07/12 11:07:07;;;;;;;;;3.00;3.00;;;;;25.68;33.32;100992.03;5054638;27;45402;-62
2023/07/12 11:09:47;;;;;;;;;2.67;2.00;;;;;25.86;33.18;100998.75;5055498;28;46227;-61
2023/07/12 11:12:20;;;;;;;;;1.67;1.67;;;;;25.97;32.59;100992.94;5055340;28;45347;-64
2023/07/12 11:14:50;;;;;;;;;2.00;2.00;;;;;25.95;32.86;101001.16;5055586;28;45542;-61
2023/07/12 11:17:22;;;;;;;;;2.33;2.33;;;;;25.88;33.13;100997.75;5051466;28;45277;-62
2023/07/12 11:20:01;;;;;;;;;2.00;2.00;;;;;25.80;32.97;100994.34;5036967;28;47693;-64
2023/07/12 11:22:48;;;;;;;;;6.67;5.00;;;;;25.94;32.14;100988.44;5055231;28;45247;-63
2023/07/12 11:25:35;;;;;;;;;2.33;1.00;;;;;26.01;31.50;101002.84;5054612;28;45556;-63
2023/07/12 11:28:05;;;;;;;;;4.33;4.00;;;;;25.98;31.18;100972.84;5055411;28;45487;-61
2023/07/12 11:30:31;;;;;;;;;2.00;1.00;;;;;26.14;31.04;100995.13;5053381;28;47314;-61